createdAt,value
2022-08-16T00:02:31.629Z,15.98
2022-08-16T00:05:00.016Z,16.04
2022-08-16T00:07:29.310Z,16.06
2022-08-16T00:09:56.529Z,16.15
2022-08-16T00:12:24.071Z,16.14
2022-08-16T00:14:50.627Z,16.20
2022-08-16T00:17:23.275Z,16.17
2022-08-16T00:19:53.708Z,16.19
2022-08-16T00:22:25.083Z,16.08
2022-08-16T00:24:52.600Z,15.99
2022-08-16T00:27:20.880Z,15.91
2022-08-16T00:29:48.172Z,15.89
2022-08-16T00:32:27.703Z,15.82
2022-08-16T00:35:00.592Z,15.83
2022-08-16T00:37:57.412Z,15.80
2022-08-16T00:40:34.276Z,15.75
2022-08-16T00:43:05.549Z,15.75
2022-08-16T00:45:58.218Z,15.76
2022-08-16T00:48:30.609Z,15.64
2022-08-16T00:50:58.708Z,15.51
2022-08-16T00:53:30.896Z,15.56
2022-08-16T00:55:59.545Z,15.54
2022-08-16T00:58:34.464Z,15.55
2022-08-16T01:01:02.273Z,15.49
2022-08-16T01:03:31.830Z,15.39
2022-08-16T01:06:32.726Z,15.28
2022-08-16T01:08:52.053Z,15.29
2022-08-16T01:11:18.579Z,15.33
2022-08-16T01:13:46.828Z,15.35
2022-08-16T01:16:19.794Z,15.35
2022-08-16T01:19:00.028Z,15.31
2022-08-16T01:21:33.919Z,15.24
2022-08-16T01:24:02.401Z,15.22
2022-08-16T01:26:34.367Z,15.18
2022-08-16T01:29:05.012Z,15.17
2022-08-16T01:31:31.662Z,15.19
2022-08-16T01:34:04.200Z,15.21
2022-08-16T01:36:34.342Z,15.22
2022-08-16T01:39:07.998Z,15.28
2022-08-16T01:41:42.082Z,15.34
2022-08-16T01:44:10.504Z,15.31
2022-08-16T01:46:40.838Z,15.22
2022-08-16T01:49:07.281Z,15.18
2022-08-16T01:51:33.755Z,15.19
2022-08-16T01:54:06.303Z,15.12
2022-08-16T01:56:34.538Z,15.15
2022-08-16T01:59:02.120Z,15.17
2022-08-16T02:01:28.847Z,15.20
2022-08-16T02:03:58.517Z,15.23
2022-08-16T02:06:38.812Z,15.18
2022-08-16T02:09:06.120Z,15.08
2022-08-16T02:11:48.101Z,15.07
2022-08-16T02:14:21.419Z,15.02
2022-08-16T02:16:48.392Z,15.02
2022-08-16T02:19:16.432Z,14.98
2022-08-16T02:22:08.401Z,14.99
2022-08-16T02:24:31.928Z,15.02
2022-08-16T02:26:59.271Z,15.08
2022-08-16T02:29:32.120Z,15.14
2022-08-16T02:32:03.453Z,15.17
2022-08-16T02:34:45.737Z,15.22
2022-08-16T02:37:16.670Z,15.25
2022-08-16T02:39:53.750Z,15.19
2022-08-16T02:42:21.160Z,15.16
2022-08-16T02:44:47.953Z,15.07
2022-08-16T02:47:25.516Z,15.05
2022-08-16T02:49:59.360Z,14.95
2022-08-16T02:52:39.297Z,14.97
2022-08-16T02:55:10.400Z,15.05
2022-08-16T02:57:37.436Z,15.00
2022-08-16T03:00:34.504Z,15.00
2022-08-16T03:02:56.977Z,14.93
2022-08-16T03:05:24.633Z,14.89
2022-08-16T03:07:51.135Z,14.83
2022-08-16T03:10:17.705Z,14.86
2022-08-16T03:12:56.080Z,14.80
2022-08-16T03:15:23.197Z,14.78
2022-08-16T03:17:53.753Z,14.69
2022-08-16T03:20:20.419Z,14.66
2022-08-16T03:22:59.141Z,14.61
2022-08-16T03:25:25.552Z,14.58
2022-08-16T03:28:08.307Z,14.52
2022-08-16T03:30:35.974Z,14.48
2022-08-16T03:33:03.736Z,14.49
2022-08-16T03:35:33.703Z,14.49
2022-08-16T03:38:03.923Z,14.46
2022-08-16T03:40:34.521Z,14.46
2022-08-16T03:43:19.918Z,14.48
2022-08-16T03:45:47.944Z,14.52
2022-08-16T03:48:14.954Z,14.56
2022-08-16T03:50:41.533Z,14.58
2022-08-16T03:53:26.629Z,14.61
2022-08-16T03:56:05.249Z,14.67
2022-08-16T03:58:33.132Z,14.67
2022-08-16T04:00:59.861Z,14.73
2022-08-16T04:03:27.312Z,14.73
2022-08-16T04:05:56.381Z,14.74
2022-08-16T04:08:24.490Z,14.71
2022-08-16T04:10:52.080Z,14.74
2022-08-16T04:13:20.290Z,14.71
2022-08-16T04:15:47.814Z,14.67
2022-08-16T04:18:19.353Z,14.66
2022-08-16T04:20:45.897Z,14.64
2022-08-16T04:23:13.218Z,14.66
2022-08-16T04:25:40.573Z,14.64
2022-08-16T04:28:54.319Z,14.58
2022-08-16T04:30:53.834Z,14.58
2022-08-16T04:33:27.146Z,14.65
2022-08-16T04:35:55.626Z,14.61
2022-08-16T04:38:23.152Z,14.92
2022-08-16T04:40:50.180Z,15.29
2022-08-16T04:43:17.393Z,15.14
2022-08-16T04:45:44.267Z,15.27
2022-08-16T04:48:10.579Z,15.52
2022-08-16T04:50:38.687Z,15.70
2022-08-16T04:53:09.833Z,16.05
2022-08-16T04:55:38.931Z,15.84
2022-08-16T04:58:44.032Z,15.97
2022-08-16T05:00:56.755Z,16.03
2022-08-16T05:03:23.766Z,16.09
2022-08-16T05:05:58.948Z,16.10
2022-08-16T05:08:30.990Z,16.17
2022-08-16T05:11:03.522Z,16.42
2022-08-16T05:13:40.004Z,16.53
2022-08-16T05:16:08.145Z,16.66
2022-08-16T05:18:38.185Z,16.72
2022-08-16T05:21:09.615Z,16.44
2022-08-16T05:23:37.767Z,16.50
2022-08-16T05:26:04.636Z,16.46
2022-08-16T05:28:37.519Z,16.20
2022-08-16T05:31:06.823Z,16.13
2022-08-16T05:33:33.554Z,15.85
2022-08-16T05:36:03.892Z,16.03
2022-08-16T05:38:39.922Z,16.10
2022-08-16T05:41:09.437Z,16.23
2022-08-16T05:43:43.438Z,16.23
2022-08-16T05:46:29.760Z,16.20
2022-08-16T05:49:03.775Z,16.23
2022-08-16T05:51:38.258Z,16.18
2022-08-16T05:54:07.560Z,16.26
2022-08-16T05:56:34.148Z,16.46
2022-08-16T05:59:04.040Z,16.49
2022-08-16T06:01:33.151Z,16.65
2022-08-16T06:04:13.477Z,16.63
2022-08-16T06:06:56.215Z,16.82
2022-08-16T06:09:24.055Z,17.05
2022-08-16T06:11:50.533Z,17.22
2022-08-16T06:14:17.375Z,17.16
2022-08-16T06:16:44.087Z,17.23
2022-08-16T06:19:10.554Z,17.54
2022-08-16T06:21:37.719Z,17.87
2022-08-16T06:24:54.847Z,18.06
2022-08-16T06:26:57.875Z,17.70
2022-08-16T06:29:24.784Z,18.04
2022-08-16T06:31:55.124Z,18.25
2022-08-16T06:34:55.337Z,18.49
2022-08-16T06:37:09.365Z,18.56
2022-08-16T06:39:49.220Z,18.58
2022-08-16T06:42:18.308Z,18.79
2022-08-16T06:44:46.594Z,18.98
2022-08-16T06:47:16.916Z,19.10
2022-08-16T06:49:53.830Z,19.13
2022-08-16T06:52:57.585Z,19.19
2022-08-16T06:55:13.118Z,19.42
2022-08-16T06:57:41.364Z,19.64
2022-08-16T07:00:13.121Z,19.78
2022-08-16T07:02:51.320Z,19.36
2022-08-16T07:05:18.945Z,19.58
2022-08-16T07:07:46.608Z,19.72
2022-08-16T07:10:17.482Z,20.03
2022-08-16T07:12:47.407Z,19.87
2022-08-16T07:15:29.551Z,20.15
2022-08-16T07:17:55.992Z,20.30
2022-08-16T07:20:35.117Z,20.27
2022-08-16T07:23:03.068Z,20.38
2022-08-16T07:25:41.553Z,20.26
2022-08-16T07:28:12.025Z,20.26
2022-08-16T07:30:47.114Z,20.56
2022-08-16T07:33:15.843Z,20.96
2022-08-16T07:35:44.335Z,21.01
2022-08-16T07:38:17.258Z,21.19
2022-08-16T07:41:00.385Z,21.22
2022-08-16T07:43:28.946Z,21.44
2022-08-16T07:45:58.530Z,21.72
2022-08-16T07:48:25.782Z,21.76
2022-08-16T07:50:57.184Z,21.83
2022-08-16T07:53:29.078Z,21.94
2022-08-16T07:55:55.887Z,22.03
2022-08-16T07:58:34.141Z,22.03
2022-08-16T08:01:02.043Z,22.18
2022-08-16T08:03:39.248Z,22.11
2022-08-16T08:06:10.258Z,22.12
2022-08-16T08:08:50.614Z,22.50
2022-08-16T08:11:19.163Z,22.35
2022-08-16T08:13:45.672Z,22.76
2022-08-16T08:16:18.518Z,22.69
2022-08-16T08:18:50.526Z,22.79
2022-08-16T08:21:26.281Z,23.15
2022-08-16T08:23:54.765Z,22.83
2022-08-16T08:26:21.164Z,22.94
2022-08-16T08:28:48.281Z,22.90
2022-08-16T08:31:17.178Z,23.20
2022-08-16T08:33:47.373Z,23.25
2022-08-16T08:36:23.919Z,23.67
2022-08-16T08:38:59.714Z,23.81
2022-08-16T08:41:28.515Z,24.25
2022-08-16T08:43:56.129Z,24.02
2022-08-16T08:46:23.707Z,23.74
2022-08-16T08:48:59.791Z,23.72
2022-08-16T08:51:31.726Z,23.70
2022-08-16T08:54:02.622Z,23.95
2022-08-16T08:56:34.772Z,24.35
2022-08-16T08:59:06.077Z,24.55
2022-08-16T09:01:56.368Z,24.60
2022-08-16T09:04:25.242Z,24.71
2022-08-16T09:06:51.798Z,24.48
2022-08-16T09:09:18.813Z,24.40
2022-08-16T09:11:50.939Z,24.76
2022-08-16T09:14:24.037Z,25.21
2022-08-16T09:17:03.797Z,25.01
2022-08-16T09:19:40.889Z,25.03
2022-08-16T09:22:08.032Z,25.17
2022-08-16T09:24:53.145Z,25.57
2022-08-16T09:27:21.844Z,25.50
2022-08-16T09:29:59.856Z,25.26
2022-08-16T09:32:30.288Z,25.29
2022-08-16T09:34:58.272Z,25.51
2022-08-16T09:37:29.526Z,25.73
2022-08-16T09:39:57.325Z,25.52
2022-08-16T09:42:27.143Z,25.56
2022-08-16T09:45:12.927Z,25.67
2022-08-16T09:47:56.766Z,25.89
2022-08-16T09:50:25.148Z,25.88
2022-08-16T09:52:51.643Z,26.17
2022-08-16T09:55:18.117Z,26.15
2022-08-16T09:57:52.721Z,26.65
2022-08-16T10:00:44.441Z,26.40
2022-08-16T10:03:18.835Z,25.85
2022-08-16T10:05:45.629Z,26.24
2022-08-16T10:08:26.675Z,26.45
2022-08-16T10:10:53.683Z,27.18
2022-08-16T10:13:20.259Z,27.84
2022-08-16T10:15:54.919Z,27.78
2022-08-16T10:18:53.984Z,27.14
2022-08-16T10:21:08.952Z,26.58
2022-08-16T10:23:35.429Z,26.34
2022-08-16T10:27:20.325Z,25.67
2022-08-16T10:28:51.088Z,25.69
2022-08-16T10:31:45.664Z,26.30
2022-08-16T10:34:04.157Z,25.77
2022-08-16T10:36:38.982Z,26.02
2022-08-16T10:39:08.507Z,26.46
2022-08-16T10:41:35.146Z,26.20
2022-08-16T10:44:02.461Z,26.29
2022-08-16T10:46:39.126Z,26.77
2022-08-16T10:49:07.581Z,26.55
2022-08-16T10:52:00.760Z,26.69
2022-08-16T10:54:29.320Z,27.15
2022-08-16T10:56:57.202Z,27.83
2022-08-16T10:59:32.567Z,27.83
2022-08-16T11:07:53.461Z,27.90
2022-08-16T11:11:04.583Z,28.21
2022-08-16T11:15:55.751Z,27.97
2022-08-16T11:19:02.957Z,28.79
2022-08-16T11:21:09.910Z,28.88
2022-08-16T11:23:57.527Z,28.90
2022-08-16T11:26:24.874Z,28.65
2022-08-16T11:31:37.932Z,28.96
2022-08-16T11:34:04.616Z,28.69
2022-08-16T11:36:31.186Z,28.65
2022-08-16T11:38:59.075Z,28.64
2022-08-16T11:41:29.278Z,28.20
2022-08-16T11:43:57.390Z,28.12
2022-08-16T11:46:44.117Z,28.19
2022-08-16T11:49:13.650Z,28.26
2022-08-16T11:51:40.774Z,27.87
2022-08-16T11:54:09.080Z,28.08
2022-08-16T11:56:52.668Z,28.38
2022-08-16T11:59:24.431Z,28.09
2022-08-16T12:01:59.532Z,27.97
2022-08-16T12:04:26.791Z,28.04
2022-08-16T12:06:53.792Z,28.17
2022-08-16T12:09:21.223Z,28.18
2022-08-16T12:11:52.393Z,28.30
2022-08-16T12:14:20.349Z,28.65
2022-08-16T12:16:55.809Z,28.83
2022-08-16T12:19:33.644Z,28.83
2022-08-16T12:22:01.803Z,28.94
2022-08-16T12:24:33.065Z,28.47
2022-08-16T12:27:00.387Z,28.62
2022-08-16T12:29:29.469Z,28.28
2022-08-16T12:32:01.301Z,28.41
2022-08-16T12:34:48.013Z,28.47
2022-08-16T12:37:20.476Z,28.37
2022-08-16T12:39:50.745Z,28.20
2022-08-16T12:42:17.974Z,27.98
2022-08-16T12:44:45.738Z,28.17
2022-08-16T12:47:12.301Z,28.43
2022-08-16T12:49:42.038Z,28.53
2022-08-16T12:52:09.212Z,28.69
2022-08-16T12:54:35.549Z,28.41
2022-08-16T12:57:03.613Z,28.85
2022-08-16T12:59:31.275Z,28.74
2022-08-16T13:01:58.403Z,28.88
2022-08-16T13:04:26.484Z,28.99
2022-08-16T13:06:53.330Z,29.06
2022-08-16T13:09:20.302Z,29.28
2022-08-16T13:11:57.801Z,29.36
2022-08-16T13:14:32.104Z,29.57
2022-08-16T13:17:00.971Z,29.39
2022-08-16T13:19:44.213Z,28.91
2022-08-16T13:22:19.715Z,28.89
2022-08-16T13:24:46.792Z,29.03
2022-08-16T13:27:13.302Z,29.10
2022-08-16T13:29:44.061Z,29.04
2022-08-16T13:32:10.876Z,28.93
2022-08-16T13:34:57.416Z,28.65
2022-08-16T13:37:24.303Z,28.30
2022-08-16T13:39:52.474Z,28.63
2022-08-16T13:42:27.857Z,28.61
2022-08-16T13:44:56.479Z,28.51
2022-08-16T13:47:25.292Z,28.87
2022-08-16T13:49:56.829Z,28.81
2022-08-16T13:52:23.854Z,28.87
2022-08-16T13:54:51.535Z,28.82
2022-08-16T13:57:19.262Z,28.98
2022-08-16T13:59:46.907Z,28.95
2022-08-16T14:02:16.698Z,28.99
2022-08-16T14:04:44.490Z,29.12
2022-08-16T14:07:19.847Z,28.99
2022-08-16T14:09:57.104Z,28.98
2022-08-16T14:12:27.655Z,28.94
2022-08-16T14:14:57.280Z,29.02
2022-08-16T14:17:24.170Z,28.97
2022-08-16T14:19:50.533Z,28.87
2022-08-16T14:22:31.112Z,29.08
2022-08-16T14:25:03.238Z,28.87
2022-08-16T14:27:30.368Z,28.93
2022-08-16T14:29:57.850Z,28.93
2022-08-16T14:32:32.714Z,29.07
2022-08-16T14:35:01.391Z,29.23
2022-08-16T14:37:27.653Z,29.27
2022-08-16T14:39:54.319Z,29.06
2022-08-16T14:42:21.978Z,29.31
2022-08-16T14:44:49.208Z,29.02
2022-08-16T14:47:16.997Z,29.15
2022-08-16T14:49:44.895Z,29.40
2022-08-16T14:52:13.066Z,29.58
2022-08-16T14:54:42.853Z,29.33
2022-08-16T14:57:12.346Z,29.34
2022-08-16T14:59:41.258Z,29.15
2022-08-16T15:02:17.290Z,29.17
2022-08-16T15:05:03.208Z,29.31
2022-08-16T15:07:34.488Z,29.31
2022-08-16T15:10:03.551Z,29.44
2022-08-16T15:12:33.736Z,29.27
2022-08-16T15:15:01.444Z,29.20
2022-08-16T15:17:37.221Z,29.15
2022-08-16T15:20:04.535Z,28.48
2022-08-16T15:22:36.559Z,28.52
2022-08-16T15:25:05.582Z,28.84
2022-08-16T15:27:33.670Z,28.93
2022-08-16T15:30:48.191Z,28.97
2022-08-16T15:32:56.602Z,29.06
2022-08-16T15:35:23.093Z,29.00
2022-08-16T15:37:54.660Z,29.01
2022-08-16T15:40:31.947Z,29.05
2022-08-16T15:42:59.097Z,28.81
2022-08-16T15:45:28.046Z,28.84
2022-08-16T15:47:56.751Z,28.85
2022-08-16T15:50:23.408Z,28.63
2022-08-16T15:52:49.875Z,28.80
2022-08-16T15:55:34.661Z,28.87
2022-08-16T15:58:01.580Z,28.80
2022-08-16T16:00:48.295Z,28.66
2022-08-16T16:03:16.162Z,28.77
2022-08-16T16:05:44.507Z,28.51
2022-08-16T16:08:16.052Z,28.40
2022-08-16T16:10:54.583Z,28.18
2022-08-16T16:13:21.572Z,28.14
2022-08-16T16:15:54.608Z,28.15
2022-08-16T16:18:21.689Z,28.27
2022-08-16T16:20:49.980Z,28.39
2022-08-16T16:23:21.130Z,28.45
2022-08-16T16:25:50.747Z,28.45
2022-08-16T16:28:51.141Z,28.09
2022-08-16T16:31:08.310Z,28.24
2022-08-16T16:33:36.849Z,28.29
2022-08-16T16:36:06.856Z,28.21
2022-08-16T16:38:39.222Z,28.20
2022-08-16T16:41:10.126Z,28.27
2022-08-16T16:43:41.058Z,28.26
2022-08-16T16:46:40.600Z,28.39
2022-08-16T16:49:00.125Z,28.48
2022-08-16T16:51:27.860Z,28.45
2022-08-16T16:53:57.309Z,28.49
2022-08-16T16:56:30.111Z,28.42
2022-08-16T16:59:03.294Z,28.46
2022-08-16T17:01:59.145Z,28.48
2022-08-16T17:04:31.755Z,28.38
2022-08-16T17:06:59.924Z,28.42
2022-08-16T17:09:27.059Z,28.42
2022-08-16T17:14:42.843Z,28.47
2022-08-16T17:17:10.135Z,28.50
2022-08-16T17:19:41.087Z,28.47
2022-08-16T17:22:14.039Z,28.44
2022-08-16T17:24:45.084Z,28.37
2022-08-16T17:27:17.952Z,28.25
2022-08-16T17:29:46.199Z,28.24
2022-08-16T17:32:34.208Z,28.19
2022-08-16T17:35:21.505Z,28.14
2022-08-16T17:37:51.435Z,28.09
2022-08-16T17:39:26.227Z,28.49
2022-08-16T17:40:40.243Z,28.04
2022-08-16T17:43:09.270Z,27.97
2022-08-16T17:45:35.618Z,27.80
2022-08-16T17:48:02.375Z,27.64
2022-08-16T17:50:30.247Z,27.53
2022-08-16T17:52:57.142Z,27.44
2022-08-16T17:55:35.071Z,27.40
2022-08-16T17:58:01.930Z,27.35
2022-08-16T18:00:47.188Z,27.29
2022-08-16T18:04:08.580Z,27.29
2022-08-16T18:06:09.503Z,27.23
2022-08-16T18:08:35.859Z,27.04
2022-08-16T18:11:07.941Z,26.88
2022-08-16T18:13:34.550Z,26.62
2022-08-16T18:16:03.632Z,26.45
2022-08-16T18:18:30.140Z,26.24
2022-08-16T18:20:56.637Z,26.07
2022-08-16T18:23:27.624Z,25.88
2022-08-16T18:26:00.509Z,25.70
2022-08-16T18:28:28.260Z,25.55
2022-08-16T18:31:00.294Z,25.38
2022-08-16T18:33:28.922Z,25.28
2022-08-16T18:35:57.823Z,25.15
2022-08-16T18:38:24.702Z,25.03
2022-08-16T18:40:53.013Z,24.93
2022-08-16T18:43:21.234Z,24.80
2022-08-16T18:46:07.677Z,24.67
2022-08-16T18:48:35.495Z,24.56
2022-08-16T18:51:05.823Z,24.49
2022-08-16T18:53:34.790Z,24.45
2022-08-16T18:56:02.125Z,24.33
2022-08-16T18:58:29.565Z,24.21
2022-08-16T19:00:57.442Z,24.10
2022-08-16T19:03:25.849Z,23.98
2022-08-16T19:06:02.360Z,23.95
2022-08-16T19:08:30.293Z,23.83
2022-08-16T19:10:56.868Z,23.76
2022-08-16T19:13:24.787Z,23.66
2022-08-16T19:15:55.442Z,23.55
2022-08-16T19:18:22.200Z,23.37
2022-08-16T19:20:49.901Z,23.27
2022-08-16T19:23:20.782Z,23.12
2022-08-16T19:25:52.745Z,22.97
2022-08-16T19:28:51.520Z,22.98
2022-08-16T19:31:16.105Z,22.90
2022-08-16T19:33:53.226Z,22.59
2022-08-16T19:36:31.639Z,22.23
2022-08-16T19:39:05.950Z,21.98
2022-08-16T19:41:33.784Z,21.91
2022-08-16T19:44:00.147Z,21.81
2022-08-16T19:46:26.533Z,21.74
2022-08-16T19:48:53.047Z,21.66
2022-08-16T19:51:19.684Z,21.50
2022-08-16T19:53:46.177Z,21.45
2022-08-16T19:56:12.558Z,21.43
2022-08-16T19:58:56.078Z,21.45
2022-08-16T20:01:27.002Z,21.32
2022-08-16T20:03:53.343Z,21.23
2022-08-16T20:06:37.854Z,21.14
2022-08-16T20:09:05.679Z,21.16
2022-08-16T20:11:32.663Z,21.11
2022-08-16T20:13:59.021Z,20.96
2022-08-16T20:16:25.769Z,20.89
2022-08-16T20:18:52.187Z,20.87
2022-08-16T20:21:18.726Z,20.85
2022-08-16T20:23:45.086Z,20.67
2022-08-16T20:26:11.616Z,20.65
2022-08-16T20:28:44.062Z,20.57
2022-08-16T20:31:19.891Z,20.45
2022-08-16T20:33:46.746Z,20.56
2022-08-16T20:36:16.296Z,20.41
2022-08-16T20:38:43.482Z,20.42
2022-08-16T20:41:09.816Z,20.29
2022-08-16T20:43:36.335Z,20.30
2022-08-16T20:46:04.443Z,20.24
2022-08-16T20:48:30.984Z,20.15
2022-08-16T20:50:58.635Z,20.05
2022-08-16T20:53:25.285Z,20.08
2022-08-16T20:55:51.822Z,20.03
2022-08-16T20:58:18.244Z,19.94
2022-08-16T21:00:44.673Z,19.79
2022-08-16T21:03:13.163Z,19.82
2022-08-16T21:05:39.915Z,19.66
2022-08-16T21:08:50.843Z,19.52
2022-08-16T21:10:53.062Z,19.42
2022-08-16T21:13:19.930Z,19.41
2022-08-16T21:15:48.777Z,19.34
2022-08-16T21:18:15.176Z,19.27
2022-08-16T21:20:41.743Z,19.29
2022-08-16T21:23:08.795Z,19.26
2022-08-16T21:25:35.917Z,19.30
2022-08-16T21:28:41.183Z,19.29
2022-08-16T21:30:51.398Z,19.15
2022-08-16T21:33:18.921Z,19.11
2022-08-16T21:35:46.229Z,19.20
2022-08-16T21:38:28.797Z,19.24
2022-08-16T21:40:56.333Z,19.28
2022-08-16T21:43:22.776Z,19.08
2022-08-16T21:45:51.976Z,19.03
2022-08-16T21:48:35.092Z,19.01
2022-08-16T21:51:06.922Z,18.89
2022-08-16T21:53:35.376Z,18.83
2022-08-16T21:56:03.354Z,18.81
2022-08-16T21:58:30.473Z,18.85
2022-08-16T22:00:57.072Z,18.84
2022-08-16T22:03:23.580Z,18.84
2022-08-16T22:05:59.998Z,18.76
2022-08-16T22:08:39.487Z,18.65
2022-08-16T22:11:16.731Z,18.64
2022-08-16T22:13:43.329Z,18.64
2022-08-16T22:16:17.982Z,18.63
2022-08-16T22:18:52.111Z,18.56
2022-08-16T22:21:22.237Z,18.54
2022-08-16T22:23:55.197Z,18.46
2022-08-16T22:26:30.756Z,18.36
2022-08-16T22:29:00.465Z,18.39
2022-08-16T22:31:27.378Z,18.44
2022-08-16T22:33:54.318Z,18.48
2022-08-16T22:36:20.641Z,18.35
2022-08-16T22:38:56.228Z,18.32
2022-08-16T22:41:25.515Z,18.19
2022-08-16T22:43:55.442Z,18.22
2022-08-16T22:46:22.371Z,18.24
2022-08-16T22:48:49.274Z,18.21
2022-08-16T22:51:17.133Z,18.09
2022-08-16T22:53:43.750Z,18.10
2022-08-16T22:56:10.081Z,18.03
2022-08-16T22:58:37.319Z,17.87
2022-08-16T23:01:05.146Z,17.83
2022-08-16T23:03:32.949Z,17.83
2022-08-16T23:05:59.852Z,17.83
2022-08-16T23:08:33.633Z,17.81
2022-08-16T23:11:12.770Z,17.82
2022-08-16T23:13:53.265Z,17.77
2022-08-16T23:16:32.438Z,17.67
2022-08-16T23:19:01.148Z,17.71
2022-08-16T23:21:27.953Z,17.72
2022-08-16T23:23:54.345Z,17.73
2022-08-16T23:26:44.636Z,17.73
2022-08-16T23:29:07.192Z,17.48
2022-08-16T23:31:46.378Z,17.31
2022-08-16T23:34:12.889Z,17.24
2022-08-16T23:36:39.980Z,17.06
2022-08-16T23:39:06.611Z,17.06
2022-08-16T23:41:33.119Z,17.01
2022-08-16T23:43:59.641Z,16.92
2022-08-16T23:46:26.466Z,16.96
2022-08-16T23:50:00.717Z,16.97
2022-08-16T23:51:39.353Z,16.97
2022-08-16T23:54:05.966Z,17.00
2022-08-16T23:56:40.180Z,17.02
2022-08-16T23:59:07.294Z,17.04
